Terminal Aerodrome Forecast
Issued by NWS Atlanta, GA

Home | Current Version | Previous Version | Text Only | Print | Product List | Glossary On
Versions: 1 2 3 4 5 6 7 8 9 10 11 12 13 14 15 16 17 18
000
FTUS42 KFFC 012323
TAFCSG
TAF
KCSG 012323Z 0200/0224 23008KT P6SM VCSH OVC040
      TEMPO 0200/0202 4SM -TSRA BKN030CB
     FM020200 24005KT P6SM SCT060 BKN250
     FM021100 22006KT P6SM BKN015
     FM021500 22008KT P6SM BKN030 PROB30 0222/0224 4SM TSRA BR
      BKN025CB=

USA.gov is the U.S. government's official web portal to all federal, state and local government web resources and services.